METAR Data
IDs: Format: Raw Decoded Include TAF

Data at: 1123 UTC 28 Sep 2021

EGGW 281050Z AUTO 19011KT 150V220 9999 BKN018/// //////TCU 17/12 Q1016